Terminal Aerodrome Forecast
Issued by NWS Melbourne, FL

Home | Current Version | Previous Version | Text Only | Print | Product List | Glossary On
Versions: 1 2 3 4 5 6 7 8 9 10 11 12 13 14 15 16 17 18 19 20 21 22 23 24 25 26 27 28
000
FTUS42 KMLB 101726
TAFDAB
TAF
KDAB 101726Z 1018/1118 21006KT P6SM SCT025 BKN040
     FM110000 15003KT P6SM FEW020 SCT040 SCT100
     FM110900 23004KT 4SM BR MIFG FEW004 SCT009 BKN015
      TEMPO 1110/1112 2SM BR BKN009
     FM111500 01008KT P6SM SCT010 BKN020=

USA.gov is the U.S. government's official web portal to all federal, state and local government web resources and services.